createdAt,value
2022-10-14T00:01:39.860Z,13.47
2022-10-14T00:04:11.719Z,13.80
2022-10-14T00:06:43.550Z,10.63
2022-10-14T00:09:15.362Z,24.10
2022-10-14T00:11:47.170Z,10.70
2022-10-14T00:14:19.147Z,11.97
2022-10-14T00:16:52.732Z,14.17
2022-10-14T00:19:24.543Z,16.33
2022-10-14T00:21:56.854Z,13.13
2022-10-14T00:24:28.779Z,11.07
2022-10-14T00:27:00.607Z,15.33
2022-10-14T00:29:32.417Z,10.93
2022-10-14T00:32:04.916Z,9.90
2022-10-14T00:34:36.745Z,9.97
2022-10-14T00:37:08.917Z,12.17
2022-10-14T00:39:40.867Z,14.20
2022-10-14T00:42:12.640Z,9.63
2022-10-14T00:44:45.001Z,8.80
2022-10-14T00:47:17.369Z,9.33
2022-10-14T00:49:49.280Z,12.80
2022-10-14T00:52:21.198Z,9.83
2022-10-14T00:54:53.157Z,10.67
2022-10-14T00:57:25.309Z,12.53
2022-10-14T00:59:57.203Z,10.30
2022-10-14T01:02:29.285Z,13.00
2022-10-14T01:05:01.124Z,11.83
2022-10-14T01:07:32.946Z,11.07
2022-10-14T01:10:04.741Z,11.40
2022-10-14T01:12:37.537Z,10.57
2022-10-14T01:15:09.418Z,12.53
2022-10-14T01:17:41.211Z,12.07
2022-10-14T01:20:13.046Z,13.83
2022-10-14T01:22:45.098Z,10.57
2022-10-14T01:25:16.916Z,11.43
2022-10-14T01:27:50.605Z,12.30
2022-10-14T01:30:23.641Z,11.33
2022-10-14T01:32:56.826Z,12.67
2022-10-14T01:35:30.450Z,11.03
2022-10-14T01:38:02.235Z,14.23
2022-10-14T01:40:34.648Z,14.47
2022-10-14T01:43:06.422Z,13.27
2022-10-14T01:45:38.813Z,15.53
2022-10-14T01:48:10.765Z,12.67
2022-10-14T01:50:42.623Z,13.63
2022-10-14T01:53:14.397Z,14.73
2022-10-14T01:55:46.306Z,12.60
2022-10-14T01:58:19.829Z,14.23
2022-10-14T02:00:51.694Z,12.83
2022-10-14T02:03:23.567Z,11.63
2022-10-14T02:05:55.367Z,12.67
2022-10-14T02:08:27.247Z,14.60
2022-10-14T02:11:02.181Z,11.40
2022-10-14T02:13:32.552Z,12.00
2022-10-14T02:16:04.607Z,16.63
2022-10-14T02:18:36.469Z,15.20
2022-10-14T02:21:10.268Z,13.30
2022-10-14T02:23:42.071Z,14.73
2022-10-14T02:26:13.964Z,18.20
2022-10-14T02:28:45.993Z,13.27
2022-10-14T02:31:18.045Z,13.93
2022-10-14T02:33:50.288Z,15.57
2022-10-14T02:36:22.351Z,15.47
2022-10-14T02:38:54.323Z,15.30
2022-10-14T02:41:26.118Z,19.47
2022-10-14T02:43:57.924Z,13.07
2022-10-14T02:46:29.720Z,18.80
2022-10-14T02:49:01.582Z,17.10
2022-10-14T02:51:33.418Z,18.60
2022-10-14T02:54:06.124Z,17.47
2022-10-14T02:56:38.392Z,13.73
2022-10-14T02:59:10.293Z,20.03
2022-10-14T03:01:43.733Z,19.03
2022-10-14T03:04:15.690Z,14.80
2022-10-14T03:06:47.608Z,13.83
2022-10-14T03:09:19.495Z,18.13
2022-10-14T03:11:51.987Z,13.53
2022-10-14T03:14:24.671Z,15.87
2022-10-14T03:16:56.973Z,15.97
2022-10-14T03:19:29.374Z,14.73
2022-10-14T03:22:01.205Z,13.27
2022-10-14T03:24:33.891Z,15.73
2022-10-14T03:27:07.428Z,16.03
2022-10-14T03:29:40.390Z,17.17
2022-10-14T03:32:19.959Z,19.33
2022-10-14T03:34:59.471Z,15.30
2022-10-14T03:37:31.387Z,18.67
2022-10-14T03:40:03.735Z,17.07
2022-10-14T03:42:36.927Z,18.00
2022-10-14T03:45:08.915Z,19.60
2022-10-14T03:47:42.425Z,19.37
2022-10-14T03:50:14.481Z,19.93
2022-10-14T03:52:50.028Z,17.83
2022-10-14T03:55:25.932Z,18.27
2022-10-14T03:57:58.060Z,16.70
2022-10-14T04:00:30.772Z,18.23
2022-10-14T04:03:07.096Z,19.07
2022-10-14T04:05:40.574Z,20.47
2022-10-14T04:08:14.097Z,21.23
2022-10-14T04:10:47.607Z,20.50
2022-10-14T04:13:19.593Z,19.60
2022-10-14T04:15:51.806Z,24.77
2022-10-14T04:18:40.415Z,19.17
2022-10-14T04:21:13.181Z,19.33
2022-10-14T04:23:46.430Z,24.70
2022-10-14T04:26:19.934Z,17.53
2022-10-14T04:28:51.894Z,20.30
2022-10-14T04:31:25.544Z,19.63
2022-10-14T04:33:59.126Z,21.17
2022-10-14T04:36:32.728Z,23.97
2022-10-14T04:39:05.291Z,22.13
2022-10-14T04:41:37.144Z,20.57
2022-10-14T04:44:09.006Z,24.17
2022-10-14T04:46:42.541Z,23.17
2022-10-14T04:49:14.619Z,21.97
2022-10-14T04:51:48.177Z,19.90
2022-10-14T04:54:21.699Z,22.97
2022-10-14T04:56:57.706Z,17.47
2022-10-14T04:59:29.799Z,21.03
2022-10-14T05:02:06.113Z,19.10
2022-10-14T05:04:39.668Z,24.87
2022-10-14T05:07:11.886Z,19.30
2022-10-14T05:09:49.052Z,19.87
2022-10-14T05:12:20.262Z,21.20
2022-10-14T05:14:53.969Z,20.03
2022-10-14T05:17:27.607Z,19.93
2022-10-14T05:19:59.565Z,21.47
2022-10-14T05:22:32.149Z,21.30
2022-10-14T05:25:04.102Z,23.33
2022-10-14T05:27:36.738Z,17.53
2022-10-14T05:30:08.702Z,20.47
2022-10-14T05:32:42.246Z,22.67
2022-10-14T05:35:14.302Z,20.37
2022-10-14T05:37:46.187Z,19.83
2022-10-14T05:40:19.074Z,19.73
2022-10-14T05:42:51.303Z,20.80
2022-10-14T05:45:23.986Z,19.67
2022-10-14T05:47:56.479Z,16.30
2022-10-14T05:50:28.667Z,16.77
2022-10-14T05:53:02.157Z,14.60
2022-10-14T05:55:35.665Z,12.77
2022-10-14T05:58:07.585Z,15.20
2022-10-14T06:00:41.156Z,18.07
2022-10-14T06:03:14.768Z,13.50
2022-10-14T06:05:46.901Z,12.00
2022-10-14T06:08:19.064Z,12.00
2022-10-14T06:10:51.028Z,12.63
2022-10-14T06:13:22.859Z,9.90
2022-10-14T06:15:55.235Z,9.00
2022-10-14T06:18:27.042Z,12.37
2022-10-14T06:20:58.893Z,10.77
2022-10-14T06:23:30.716Z,7.90
2022-10-14T06:26:02.521Z,9.37
2022-10-14T06:28:34.371Z,9.63
2022-10-14T06:31:06.162Z,9.23
2022-10-14T06:33:37.980Z,7.37
2022-10-14T06:36:09.775Z,7.27
2022-10-14T06:38:41.578Z,6.97
2022-10-14T06:41:13.495Z,7.23
2022-10-14T06:43:45.711Z,7.60
2022-10-14T06:46:20.523Z,6.60
2022-10-14T06:48:52.307Z,6.40
2022-10-14T06:51:24.873Z,7.40
2022-10-14T06:53:56.724Z,7.70
2022-10-14T06:56:28.608Z,6.93
2022-10-14T06:59:01.013Z,6.37
2022-10-14T07:01:32.864Z,6.60
2022-10-14T07:04:04.630Z,5.00
2022-10-14T07:06:36.636Z,5.33
2022-10-14T07:09:08.435Z,7.07
2022-10-14T07:11:40.302Z,7.17
2022-10-14T07:14:12.102Z,6.23
2022-10-14T07:16:44.114Z,4.83
2022-10-14T07:19:15.917Z,5.67
2022-10-14T07:21:47.737Z,10.60
2022-10-14T07:24:19.629Z,6.40
2022-10-14T07:26:51.460Z,6.93
2022-10-14T07:29:23.425Z,7.50
2022-10-14T07:31:55.243Z,7.80
2022-10-14T07:34:27.161Z,7.07
2022-10-14T07:36:59.010Z,8.70
2022-10-14T07:39:30.966Z,9.47
2022-10-14T07:42:02.848Z,13.50
2022-10-14T07:44:34.557Z,9.67
2022-10-14T07:47:06.349Z,8.93
2022-10-14T07:49:38.192Z,8.73
2022-10-14T07:52:10.017Z,9.30
2022-10-14T07:54:41.812Z,9.80
2022-10-14T07:57:13.613Z,11.03
2022-10-14T07:59:45.418Z,10.70
2022-10-14T08:02:17.248Z,10.03
2022-10-14T08:04:49.094Z,11.90
2022-10-14T08:07:21.124Z,11.53
2022-10-14T08:09:53.299Z,13.00
2022-10-14T08:12:25.179Z,12.17
2022-10-14T08:14:57.006Z,14.93
2022-10-14T08:17:28.814Z,12.37
2022-10-14T08:20:00.608Z,10.67
2022-10-14T08:22:32.612Z,13.20
2022-10-14T08:25:04.491Z,11.83
2022-10-14T08:27:36.328Z,13.97
2022-10-14T08:30:11.098Z,15.93
2022-10-14T08:32:41.504Z,11.33
2022-10-14T08:35:13.776Z,10.53
2022-10-14T08:37:45.716Z,9.67
2022-10-14T08:40:17.568Z,11.13
2022-10-14T08:42:49.364Z,11.57
2022-10-14T08:45:21.254Z,9.73
2022-10-14T08:47:53.096Z,8.57
2022-10-14T08:50:24.929Z,7.87
2022-10-14T08:52:57.448Z,12.63
2022-10-14T08:55:30.824Z,9.90
2022-10-14T08:58:04.049Z,10.37
2022-10-14T09:00:36.136Z,8.87
2022-10-14T09:03:08.001Z,7.50
2022-10-14T09:05:39.915Z,7.53
2022-10-14T09:08:11.725Z,8.10
2022-10-14T09:10:43.510Z,5.60
2022-10-14T09:13:15.382Z,7.47
2022-10-14T09:15:47.325Z,7.07
2022-10-14T09:18:19.148Z,6.70
2022-10-14T09:20:51.047Z,7.70
2022-10-14T09:23:23.008Z,6.30
2022-10-14T09:25:54.791Z,7.10
2022-10-14T09:28:26.611Z,6.60
2022-10-14T09:30:58.638Z,6.40
2022-10-14T09:33:30.435Z,6.53
2022-10-14T09:36:02.238Z,6.50
2022-10-14T09:38:34.909Z,5.77
2022-10-14T09:41:06.749Z,6.47
2022-10-14T09:46:10.397Z,5.90
2022-10-14T09:48:43.154Z,5.00
2022-10-14T09:51:15.653Z,5.33
2022-10-14T09:53:47.477Z,5.53
2022-10-14T09:56:20.841Z,7.73
2022-10-14T09:58:54.361Z,5.50
2022-10-14T10:01:26.296Z,5.40
2022-10-14T10:03:59.244Z,6.10
2022-10-14T10:06:31.980Z,6.03
2022-10-14T10:09:03.839Z,6.23
2022-10-14T10:11:35.645Z,5.77
2022-10-14T10:14:08.694Z,4.13
2022-10-14T10:16:40.484Z,7.93
2022-10-14T10:19:12.424Z,4.77
2022-10-14T10:21:44.370Z,6.30
2022-10-14T10:24:16.273Z,6.67
2022-10-14T10:26:48.059Z,5.10
2022-10-14T10:29:19.825Z,4.73
2022-10-14T10:31:51.857Z,4.10
2022-10-14T10:34:23.685Z,4.73
2022-10-14T10:36:55.594Z,4.47
2022-10-14T10:39:27.392Z,5.10
2022-10-14T10:41:59.198Z,4.03
2022-10-14T10:44:31.019Z,3.87
2022-10-14T10:47:02.878Z,4.17
2022-10-14T10:49:34.730Z,4.83
2022-10-14T10:52:07.161Z,3.40
2022-10-14T10:54:39.038Z,2.97
2022-10-14T10:57:10.895Z,3.90
2022-10-14T10:59:42.701Z,3.90
2022-10-14T11:02:14.579Z,5.10
2022-10-14T11:04:46.476Z,4.03
2022-10-14T11:07:18.353Z,2.83
2022-10-14T11:09:50.206Z,4.90
2022-10-14T11:12:22.227Z,5.67
2022-10-14T11:14:54.463Z,5.43
2022-10-14T11:17:26.395Z,4.33
2022-10-14T11:19:58.482Z,3.93
2022-10-14T11:22:30.390Z,4.20
2022-10-14T11:25:02.206Z,5.40
2022-10-14T11:27:34.024Z,3.97
2022-10-14T11:30:05.854Z,3.00
2022-10-14T11:32:37.630Z,3.67
2022-10-14T11:35:11.308Z,3.67
2022-10-14T11:37:43.176Z,3.70
2022-10-14T11:40:15.072Z,3.17
2022-10-14T11:42:47.006Z,3.70
2022-10-14T11:45:21.252Z,2.30
2022-10-14T11:47:53.936Z,3.30
2022-10-14T11:50:25.761Z,3.33
2022-10-14T11:52:57.580Z,3.63
2022-10-14T11:55:29.348Z,3.83
2022-10-14T11:58:01.276Z,2.50
2022-10-14T12:00:33.281Z,2.73
2022-10-14T12:03:05.189Z,2.53
2022-10-14T12:05:37.037Z,2.47
2022-10-14T12:08:08.929Z,3.70
2022-10-14T12:10:40.707Z,3.43
2022-10-14T12:13:13.772Z,2.53
2022-10-14T12:15:45.536Z,2.87
2022-10-14T12:18:18.417Z,2.67
2022-10-14T12:20:50.705Z,3.63
2022-10-14T12:23:23.654Z,2.37
2022-10-14T12:25:55.443Z,3.20
2022-10-14T12:28:27.315Z,2.83
2022-10-14T12:30:59.083Z,3.47
2022-10-14T12:33:32.626Z,3.07
2022-10-14T12:36:04.623Z,3.47
2022-10-14T12:38:36.433Z,2.97
2022-10-14T12:41:08.191Z,3.87
2022-10-14T12:43:41.360Z,4.23
2022-10-14T12:46:13.139Z,3.73
2022-10-14T12:48:44.935Z,3.07
2022-10-14T12:51:16.742Z,3.63
2022-10-14T12:53:48.544Z,2.60
2022-10-14T12:56:20.644Z,2.30
2022-10-14T12:58:52.449Z,3.20
2022-10-14T13:01:24.271Z,2.53
2022-10-14T13:03:56.338Z,3.13
2022-10-14T13:06:28.135Z,3.40
2022-10-14T13:08:59.888Z,3.93
2022-10-14T13:11:31.806Z,4.23
2022-10-14T13:14:04.560Z,2.80
2022-10-14T13:16:36.383Z,4.10
2022-10-14T13:19:08.951Z,4.60
2022-10-14T13:21:40.790Z,2.83
2022-10-14T13:24:12.596Z,7.10
2022-10-14T13:26:44.386Z,2.67
2022-10-14T13:29:16.595Z,2.63
2022-10-14T13:31:48.355Z,3.77
2022-10-14T13:34:20.153Z,2.63
2022-10-14T13:36:52.051Z,3.10
2022-10-14T13:39:23.800Z,3.53
2022-10-14T13:41:56.055Z,3.17
2022-10-14T13:44:27.906Z,7.97
2022-10-14T13:47:00.655Z,6.53
2022-10-14T13:49:32.452Z,5.10
2022-10-14T13:52:04.302Z,4.53
2022-10-14T13:54:36.110Z,7.73
2022-10-14T13:59:43.934Z,5.20
2022-10-14T14:02:14.865Z,6.00
2022-10-14T14:04:46.612Z,6.10
2022-10-14T14:07:47.831Z,6.17
2022-10-14T14:09:53.622Z,6.10
2022-10-14T14:12:25.414Z,7.17
2022-10-14T14:14:57.220Z,5.37
2022-10-14T14:17:29.372Z,5.20
2022-10-14T14:20:01.382Z,5.63
2022-10-14T14:22:33.198Z,6.00
2022-10-14T14:25:24.268Z,5.40
2022-10-14T14:27:38.396Z,6.20
2022-10-14T14:30:10.195Z,5.43
2022-10-14T14:32:42.055Z,4.40
2022-10-14T14:35:14.625Z,5.80
2022-10-14T14:37:55.782Z,5.57
2022-10-14T14:40:20.612Z,6.30
2022-10-14T14:42:52.429Z,6.73
2022-10-14T14:45:24.572Z,7.63
2022-10-14T14:47:56.356Z,4.97
2022-10-14T14:50:31.135Z,5.93
2022-10-14T14:53:03.368Z,4.97
2022-10-14T14:55:35.187Z,4.73
2022-10-14T14:58:07.036Z,5.37
2022-10-14T15:00:38.865Z,4.43
2022-10-14T15:03:10.661Z,4.77
2022-10-14T15:05:42.623Z,4.00
2022-10-14T15:08:14.774Z,4.70
2022-10-14T15:10:46.683Z,3.83
2022-10-14T15:13:18.458Z,5.10
2022-10-14T15:15:50.284Z,3.47
2022-10-14T15:18:22.060Z,6.20
2022-10-14T15:20:53.861Z,3.33
2022-10-14T15:23:25.638Z,3.23
2022-10-14T15:25:57.463Z,3.83
2022-10-14T15:28:29.297Z,5.77
2022-10-14T15:31:05.558Z,4.13
2022-10-14T15:33:36.406Z,3.27
2022-10-14T15:36:08.212Z,7.10
2022-10-14T15:38:40.156Z,3.53
2022-10-14T15:41:12.047Z,6.97
2022-10-14T15:43:43.836Z,5.27
2022-10-14T15:46:15.654Z,4.60
2022-10-14T15:48:47.427Z,4.13
2022-10-14T15:51:20.956Z,5.10
2022-10-14T15:53:52.747Z,4.73
2022-10-14T15:56:24.606Z,4.30
2022-10-14T15:58:57.616Z,5.13
2022-10-14T16:01:29.599Z,3.63
2022-10-14T16:04:01.350Z,7.03
2022-10-14T16:06:33.147Z,5.23
2022-10-14T16:09:05.149Z,3.97
2022-10-14T16:11:36.938Z,5.17
2022-10-14T16:14:09.718Z,5.27
2022-10-14T16:16:41.580Z,4.63
2022-10-14T16:19:13.372Z,4.17
2022-10-14T16:21:45.219Z,3.60
2022-10-14T16:24:17.114Z,3.63
2022-10-14T16:26:48.848Z,4.90
2022-10-14T16:29:20.674Z,3.93
2022-10-14T16:31:52.592Z,4.30
2022-10-14T16:34:24.352Z,6.13
2022-10-14T16:36:56.140Z,4.30
2022-10-14T16:39:27.941Z,2.97
2022-10-14T16:41:59.728Z,4.37
2022-10-14T16:44:31.564Z,5.80
2022-10-14T16:47:03.555Z,7.00
2022-10-14T16:49:35.413Z,7.77
2022-10-14T16:52:08.082Z,9.47
2022-10-14T16:54:39.954Z,9.83
2022-10-14T16:57:11.741Z,9.23
2022-10-14T16:59:43.636Z,4.47
2022-10-14T17:02:15.427Z,7.60
2022-10-14T17:04:47.227Z,10.03
2022-10-14T17:07:19.033Z,5.73
2022-10-14T17:09:50.926Z,5.40
2022-10-14T17:12:22.970Z,4.60
2022-10-14T17:14:55.005Z,4.47
2022-10-14T17:17:26.806Z,4.37
2022-10-14T17:19:58.738Z,5.37
2022-10-14T17:22:31.451Z,3.67
2022-10-14T17:25:03.228Z,5.30
2022-10-14T17:27:35.610Z,4.47
2022-10-14T17:30:07.758Z,4.70
2022-10-14T17:32:39.549Z,7.00
2022-10-14T17:35:14.431Z,7.17
2022-10-14T17:37:44.783Z,6.23
2022-10-14T17:40:16.588Z,4.13
2022-10-14T17:42:48.411Z,6.97
2022-10-14T17:45:20.184Z,6.87
2022-10-14T17:47:51.985Z,3.60
2022-10-14T17:50:23.772Z,4.97
2022-10-14T17:52:55.606Z,3.43
2022-10-14T17:55:27.394Z,6.03
2022-10-14T17:57:59.211Z,3.17
2022-10-14T18:00:31.114Z,3.60
2022-10-14T18:03:03.138Z,5.10
2022-10-14T18:05:34.933Z,4.97
2022-10-14T18:08:06.707Z,5.43
2022-10-14T18:10:38.526Z,5.67
2022-10-14T18:13:10.421Z,5.33
2022-10-14T18:15:42.227Z,4.47
2022-10-14T18:18:14.140Z,14.20
2022-10-14T18:20:45.944Z,4.47
2022-10-14T18:23:17.884Z,6.30
2022-10-14T18:25:49.719Z,4.53
2022-10-14T18:28:21.572Z,6.00
2022-10-14T18:30:53.349Z,6.73
2022-10-14T18:33:25.303Z,4.70
2022-10-14T18:35:57.270Z,5.73
2022-10-14T18:38:29.024Z,6.47
2022-10-14T18:41:00.992Z,7.33
2022-10-14T18:43:32.797Z,8.00
2022-10-14T18:46:04.587Z,5.63
2022-10-14T18:48:36.515Z,5.53
2022-10-14T18:51:08.295Z,6.57
2022-10-14T18:53:40.181Z,5.70
2022-10-14T18:56:12.002Z,4.97
2022-10-14T18:58:44.426Z,6.87
2022-10-14T19:01:16.534Z,8.07
2022-10-14T19:03:48.378Z,5.90
2022-10-14T19:06:20.162Z,7.93
2022-10-14T19:08:52.023Z,5.63
2022-10-14T19:11:23.902Z,11.00
2022-10-14T19:13:55.676Z,6.40
2022-10-14T19:16:27.472Z,8.00
2022-10-14T19:18:59.310Z,7.50
2022-10-14T19:21:31.176Z,6.40
2022-10-14T19:24:03.011Z,10.93
2022-10-14T19:26:34.891Z,6.63
2022-10-14T19:29:10.454Z,7.30
2022-10-14T19:31:40.195Z,8.13
2022-10-14T19:34:12.041Z,8.00
2022-10-14T19:36:43.849Z,6.80
2022-10-14T19:39:15.696Z,7.47
2022-10-14T19:41:47.572Z,8.23
2022-10-14T19:44:19.697Z,7.40
2022-10-14T19:46:51.454Z,6.07
2022-10-14T19:49:23.289Z,10.13
2022-10-14T19:51:55.128Z,7.70
2022-10-14T19:54:26.967Z,8.23
2022-10-14T19:56:58.871Z,9.17
2022-10-14T19:59:30.660Z,7.63
2022-10-14T20:02:02.462Z,8.53
2022-10-14T20:04:34.257Z,7.43
2022-10-14T20:07:06.212Z,7.50
2022-10-14T20:09:37.978Z,7.80
2022-10-14T20:12:09.771Z,7.20
2022-10-14T20:14:41.574Z,7.30
2022-10-14T20:17:13.444Z,6.20
2022-10-14T20:19:45.297Z,5.80
2022-10-14T20:22:17.177Z,5.20
2022-10-14T20:24:48.986Z,7.23
2022-10-14T20:27:20.959Z,8.77
2022-10-14T20:29:52.965Z,7.70
2022-10-14T20:32:24.752Z,7.37
2022-10-14T20:34:56.559Z,7.03
2022-10-14T20:37:28.418Z,8.10
2022-10-14T20:40:00.348Z,9.37
2022-10-14T20:42:32.251Z,10.50
2022-10-14T20:45:04.040Z,10.17
2022-10-14T20:47:35.883Z,10.43
2022-10-14T20:50:07.710Z,8.17
2022-10-14T20:52:39.501Z,8.23
2022-10-14T20:55:11.372Z,8.50
2022-10-14T20:57:43.243Z,11.77
2022-10-14T21:00:14.981Z,11.17
2022-10-14T21:02:46.823Z,10.17
2022-10-14T21:05:18.623Z,10.60
2022-10-14T21:07:50.435Z,9.33
2022-10-14T21:10:22.233Z,10.67
2022-10-14T21:12:54.037Z,10.43
2022-10-14T21:15:25.830Z,9.43
2022-10-14T21:17:57.685Z,10.47
2022-10-14T21:20:29.445Z,7.73
2022-10-14T21:23:01.356Z,10.67
2022-10-14T21:25:33.252Z,7.80
2022-10-14T21:28:05.051Z,9.63
2022-10-14T21:30:36.832Z,9.13
2022-10-14T21:33:08.720Z,9.40
2022-10-14T21:35:40.534Z,9.70
2022-10-14T21:38:12.598Z,9.07
2022-10-14T21:40:44.366Z,8.83
2022-10-14T21:43:16.171Z,7.43
2022-10-14T21:45:47.965Z,9.23
2022-10-14T21:48:19.839Z,9.10
2022-10-14T21:50:51.594Z,10.00
2022-10-14T21:53:23.371Z,7.87
2022-10-14T21:55:55.168Z,8.67
2022-10-14T21:58:27.641Z,10.50
2022-10-14T22:00:59.558Z,10.43
2022-10-14T22:03:31.394Z,7.07
2022-10-14T22:06:03.280Z,10.67
2022-10-14T22:08:35.099Z,10.53
2022-10-14T22:11:06.892Z,10.40
2022-10-14T22:13:38.776Z,7.87
2022-10-14T22:16:10.576Z,10.40
2022-10-14T22:18:42.481Z,9.57
2022-10-14T22:21:14.268Z,10.80
2022-10-14T22:23:46.072Z,7.37
2022-10-14T22:26:17.897Z,8.50
2022-10-14T22:28:49.825Z,10.30
2022-10-14T22:31:21.781Z,8.00
2022-10-14T22:33:53.591Z,7.47
2022-10-14T22:36:25.382Z,8.13
2022-10-14T22:38:57.195Z,6.23
2022-10-14T22:41:34.895Z,8.23
2022-10-14T22:44:02.404Z,7.33
2022-10-14T22:46:34.210Z,9.30
2022-10-14T22:49:06.042Z,10.17
2022-10-14T22:51:38.006Z,7.77
2022-10-14T22:54:10.105Z,9.53
2022-10-14T22:56:41.986Z,9.37
2022-10-14T22:59:13.792Z,8.53
2022-10-14T23:01:45.596Z,7.90
2022-10-14T23:04:17.398Z,10.03
2022-10-14T23:06:49.345Z,10.43
2022-10-14T23:09:21.340Z,10.53
2022-10-14T23:11:53.376Z,11.07
2022-10-14T23:14:25.187Z,11.67
2022-10-14T23:16:56.977Z,9.07
2022-10-14T23:19:28.800Z,9.83
2022-10-14T23:22:00.578Z,13.17
2022-10-14T23:24:32.338Z,11.50
2022-10-14T23:27:04.185Z,11.33
2022-10-14T23:29:36.087Z,11.90
2022-10-14T23:32:07.898Z,9.70
2022-10-14T23:34:39.816Z,9.93
2022-10-14T23:37:11.610Z,10.30
2022-10-14T23:39:43.409Z,12.97
2022-10-14T23:42:15.214Z,22.97
2022-10-14T23:44:47.072Z,11.47
2022-10-14T23:47:18.869Z,15.63
2022-10-14T23:49:50.723Z,14.97
2022-10-14T23:52:22.469Z,13.33
2022-10-14T23:54:54.458Z,11.53
2022-10-14T23:57:26.384Z,12.23
2022-10-14T23:59:58.228Z,12.77
